sensor_id;sensor_type;location;lat;lon;timestamp;pressure;altitude;pressure_sealevel;temperature;humidity
59375;BME280;45172;55.006;73.460;2023-05-19T00:01:42;102036.22;;;0.95;84.61
59375;BME280;45172;55.006;73.460;2023-05-19T00:04:13;102031.88;;;1.06;84.04
59375;BME280;45172;55.006;73.460;2023-05-19T00:06:40;102034.06;;;1.22;83.55
59375;BME280;45172;55.006;73.460;2023-05-19T00:09:10;102030.94;;;1.38;82.44
59375;BME280;45172;55.006;73.460;2023-05-19T00:11:38;102040.28;;;1.57;82.49
59375;BME280;45172;55.006;73.460;2023-05-19T00:14:06;102046.84;;;1.74;81.74
59375;BME280;45172;55.006;73.460;2023-05-19T00:16:34;102036.44;;;1.86;81.55
59375;BME280;45172;55.006;73.460;2023-05-19T00:19:03;102043.66;;;2.00;81.48
59375;BME280;45172;55.006;73.460;2023-05-19T00:21:29;102041.16;;;2.14;80.84
59375;BME280;45172;55.006;73.460;2023-05-19T00:23:56;102040.66;;;2.30;80.25
59375;BME280;45172;55.006;73.460;2023-05-19T00:26:22;102040.09;;;2.46;78.59
59375;BME280;45172;55.006;73.460;2023-05-19T00:28:49;102040.84;;;2.67;77.54
59375;BME280;45172;55.006;73.460;2023-05-19T00:31:15;102031.97;;;2.89;76.62
59375;BME280;45172;55.006;73.460;2023-05-19T00:33:41;102036.72;;;3.07;75.00
59375;BME280;45172;55.006;73.460;2023-05-19T00:36:08;102036.00;;;3.33;73.85
59375;BME280;45172;55.006;73.460;2023-05-19T00:38:35;102035.13;;;3.58;72.94
59375;BME280;45172;55.006;73.460;2023-05-19T00:41:02;102046.69;;;3.74;72.01
59375;BME280;45172;55.006;73.460;2023-05-19T00:43:28;102033.06;;;3.91;70.87
59375;BME280;45172;55.006;73.460;2023-05-19T00:45:56;102033.66;;;4.13;70.27
59375;BME280;45172;55.006;73.460;2023-05-19T00:48:24;102034.09;;;4.32;69.51
59375;BME280;45172;55.006;73.460;2023-05-19T00:50:52;102039.31;;;4.58;68.88
59375;BME280;45172;55.006;73.460;2023-05-19T00:53:19;102030.25;;;4.79;68.25
59375;BME280;45172;55.006;73.460;2023-05-19T00:55:46;102028.41;;;4.92;67.40
59375;BME280;45172;55.006;73.460;2023-05-19T00:58:13;102027.09;;;5.12;67.10
59375;BME280;45172;55.006;73.460;2023-05-19T01:00:40;102021.81;;;5.26;66.42
59375;BME280;45172;55.006;73.460;2023-05-19T01:03:07;102024.59;;;5.42;66.04
59375;BME280;45172;55.006;73.460;2023-05-19T01:05:39;102023.56;;;5.54;65.61
59375;BME280;45172;55.006;73.460;2023-05-19T01:08:12;102024.34;;;5.66;65.35
59375;BME280;45172;55.006;73.460;2023-05-19T01:10:38;102021.25;;;5.73;64.67
59375;BME280;45172;55.006;73.460;2023-05-19T01:13:05;102018.78;;;5.90;64.52
59375;BME280;45172;55.006;73.460;2023-05-19T01:18:22;102025.31;;;6.25;62.57
59375;BME280;45172;55.006;73.460;2023-05-19T01:20:57;102011.34;;;6.56;60.58
59375;BME280;45172;55.006;73.460;2023-05-19T01:23:48;102021.47;;;6.80;59.72
59375;BME280;45172;55.006;73.460;2023-05-19T01:31:44;102007.72;;;7.01;59.62
59375;BME280;45172;55.006;73.460;2023-05-19T01:34:17;102024.06;;;7.42;57.65
59375;BME280;45172;55.006;73.460;2023-05-19T01:36:46;102005.63;;;7.27;57.65
59375;BME280;45172;55.006;73.460;2023-05-19T01:39:15;102015.06;;;7.38;57.63
59375;BME280;45172;55.006;73.460;2023-05-19T01:41:43;102016.84;;;7.71;55.65
59375;BME280;45172;55.006;73.460;2023-05-19T01:44:10;102015.78;;;7.67;56.15
59375;BME280;45172;55.006;73.460;2023-05-19T01:46:37;102008.25;;;7.75;56.35
59375;BME280;45172;55.006;73.460;2023-05-19T01:49:04;102008.31;;;7.93;56.31
59375;BME280;45172;55.006;73.460;2023-05-19T01:51:30;102017.53;;;8.18;54.26
59375;BME280;45172;55.006;73.460;2023-05-19T01:53:57;102011.16;;;8.31;53.62
59375;BME280;45172;55.006;73.460;2023-05-19T02:02:01;102009.00;;;8.75;52.75
59375;BME280;45172;55.006;73.460;2023-05-19T02:04:42;101998.03;;;8.86;52.05
59375;BME280;45172;55.006;73.460;2023-05-19T02:07:16;102002.88;;;8.95;52.08
59375;BME280;45172;55.006;73.460;2023-05-19T02:10:03;102004.91;;;9.00;51.16
59375;BME280;45172;55.006;73.460;2023-05-19T02:12:39;101998.25;;;8.90;51.42
59375;BME280;45172;55.006;73.460;2023-05-19T02:15:11;101993.56;;;9.21;50.94
59375;BME280;45172;55.006;73.460;2023-05-19T02:17:39;102005.41;;;9.29;51.66
59375;BME280;45172;55.006;73.460;2023-05-19T02:20:08;101995.34;;;9.60;50.51
59375;BME280;45172;55.006;73.460;2023-05-19T02:22:35;102000.84;;;9.84;49.48
59375;BME280;45172;55.006;73.460;2023-05-19T02:25:01;101995.22;;;9.96;48.87
59375;BME280;45172;55.006;73.460;2023-05-19T02:27:27;101996.31;;;10.02;48.52
59375;BME280;45172;55.006;73.460;2023-05-19T02:29:54;101991.69;;;10.17;47.79
59375;BME280;45172;55.006;73.460;2023-05-19T02:32:21;101993.53;;;10.39;47.63
59375;BME280;45172;55.006;73.460;2023-05-19T02:34:47;101995.13;;;10.55;47.06
59375;BME280;45172;55.006;73.460;2023-05-19T02:37:14;101985.09;;;10.69;46.08
59375;BME280;45172;55.006;73.460;2023-05-19T02:39:40;101993.75;;;10.87;45.40
59375;BME280;45172;55.006;73.460;2023-05-19T02:42:07;101997.22;;;11.08;44.61
59375;BME280;45172;55.006;73.460;2023-05-19T02:44:33;101996.81;;;11.20;44.37
59375;BME280;45172;55.006;73.460;2023-05-19T02:47:01;101997.19;;;11.30;44.17
59375;BME280;45172;55.006;73.460;2023-05-19T02:49:27;101998.97;;;11.54;44.01
59375;BME280;45172;55.006;73.460;2023-05-19T02:51:56;101999.63;;;11.71;43.23
59375;BME280;45172;55.006;73.460;2023-05-19T02:54:22;101997.69;;;11.91;43.13
59375;BME280;45172;55.006;73.460;2023-05-19T02:56:48;101993.59;;;12.01;42.86
59375;BME280;45172;55.006;73.460;2023-05-19T02:59:14;101994.03;;;12.12;41.53
59375;BME280;45172;55.006;73.460;2023-05-19T03:01:40;101984.00;;;12.29;42.11
59375;BME280;45172;55.006;73.460;2023-05-19T03:04:06;101980.97;;;12.44;40.68
59375;BME280;45172;55.006;73.460;2023-05-19T03:06:32;101990.63;;;12.68;40.34
59375;BME280;45172;55.006;73.460;2023-05-19T03:08:59;101984.00;;;12.82;40.34
59375;BME280;45172;55.006;73.460;2023-05-19T03:11:25;101981.44;;;12.85;40.44
59375;BME280;45172;55.006;73.460;2023-05-19T03:13:51;101981.56;;;12.90;39.42
59375;BME280;45172;55.006;73.460;2023-05-19T03:16:17;101984.81;;;13.09;38.96
59375;BME280;45172;55.006;73.460;2023-05-19T03:18:44;101967.25;;;13.14;38.61
59375;BME280;45172;55.006;73.460;2023-05-19T03:21:10;101985.28;;;13.24;38.36
59375;BME280;45172;55.006;73.460;2023-05-19T03:23:36;101989.81;;;13.27;38.11
59375;BME280;45172;55.006;73.460;2023-05-19T03:26:02;101976.97;;;13.42;37.93
59375;BME280;45172;55.006;73.460;2023-05-19T03:28:29;101983.63;;;13.57;36.85
59375;BME280;45172;55.006;73.460;2023-05-19T03:30:55;101976.59;;;13.59;36.69
59375;BME280;45172;55.006;73.460;2023-05-19T03:33:21;101981.22;;;13.65;37.28
59375;BME280;45172;55.006;73.460;2023-05-19T03:35:48;101971.69;;;13.73;36.50
59375;BME280;45172;55.006;73.460;2023-05-19T03:38:14;101972.66;;;13.77;36.56
59375;BME280;45172;55.006;73.460;2023-05-19T03:40:40;101966.00;;;13.93;36.58
59375;BME280;45172;55.006;73.460;2023-05-19T03:43:11;101965.63;;;14.13;36.21
59375;BME280;45172;55.006;73.460;2023-05-19T03:45:38;101963.22;;;14.22;35.73
59375;BME280;45172;55.006;73.460;2023-05-19T03:48:06;101967.84;;;14.29;35.42
59375;BME280;45172;55.006;73.460;2023-05-19T03:50:32;101968.81;;;14.33;34.68
59375;BME280;45172;55.006;73.460;2023-05-19T03:52:59;101964.59;;;14.41;35.08
59375;BME280;45172;55.006;73.460;2023-05-19T03:55:25;101961.28;;;14.51;34.10
59375;BME280;45172;55.006;73.460;2023-05-19T03:57:55;101963.94;;;14.51;33.88
59375;BME280;45172;55.006;73.460;2023-05-19T04:00:21;101963.34;;;14.62;34.30
59375;BME280;45172;55.006;73.460;2023-05-19T04:02:47;101968.88;;;14.71;33.65
59375;BME280;45172;55.006;73.460;2023-05-19T04:05:14;101964.41;;;14.70;33.60
59375;BME280;45172;55.006;73.460;2023-05-19T04:07:40;101960.16;;;14.75;33.62
59375;BME280;45172;55.006;73.460;2023-05-19T04:10:06;101965.69;;;14.86;32.46
59375;BME280;45172;55.006;73.460;2023-05-19T04:12:33;101967.69;;;14.95;32.80
59375;BME280;45172;55.006;73.460;2023-05-19T04:14:58;101968.63;;;14.96;33.76
59375;BME280;45172;55.006;73.460;2023-05-19T04:17:25;101967.78;;;14.98;33.85
59375;BME280;45172;55.006;73.460;2023-05-19T04:19:52;101964.25;;;14.99;32.87
59375;BME280;45172;55.006;73.460;2023-05-19T04:22:18;101966.88;;;14.98;33.29
59375;BME280;45172;55.006;73.460;2023-05-19T04:24:44;101966.28;;;15.11;32.82
59375;BME280;45172;55.006;73.460;2023-05-19T04:27:11;101955.91;;;15.25;31.85
59375;BME280;45172;55.006;73.460;2023-05-19T04:29:37;101960.44;;;15.28;32.09
59375;BME280;45172;55.006;73.460;2023-05-19T04:32:05;101958.88;;;15.38;32.46
59375;BME280;45172;55.006;73.460;2023-05-19T04:34:35;101969.56;;;15.39;31.82
59375;BME280;45172;55.006;73.460;2023-05-19T04:37:07;101954.72;;;15.52;31.48
59375;BME280;45172;55.006;73.460;2023-05-19T04:39:34;101955.88;;;15.65;31.58
59375;BME280;45172;55.006;73.460;2023-05-19T04:42:03;101954.16;;;15.70;30.71
59375;BME280;45172;55.006;73.460;2023-05-19T04:44:29;101942.91;;;15.85;31.18
59375;BME280;45172;55.006;73.460;2023-05-19T04:46:56;101941.34;;;15.97;31.44
59375;BME280;45172;55.006;73.460;2023-05-19T04:49:22;101933.38;;;15.98;30.37
59375;BME280;45172;55.006;73.460;2023-05-19T04:51:53;101936.88;;;15.96;30.40
59375;BME280;45172;55.006;73.460;2023-05-19T04:54:19;101951.28;;;16.02;30.68
59375;BME280;45172;55.006;73.460;2023-05-19T04:56:47;101940.59;;;16.04;30.91
59375;BME280;45172;55.006;73.460;2023-05-19T04:59:13;101944.97;;;15.99;30.45
59375;BME280;45172;55.006;73.460;2023-05-19T05:01:39;101937.06;;;16.07;30.10
59375;BME280;45172;55.006;73.460;2023-05-19T05:04:05;101934.38;;;16.05;30.55
59375;BME280;45172;55.006;73.460;2023-05-19T05:06:32;101930.25;;;16.24;30.34
59375;BME280;45172;55.006;73.460;2023-05-19T05:08:58;101935.88;;;16.41;30.89
59375;BME280;45172;55.006;73.460;2023-05-19T05:11:25;101926.72;;;16.25;29.65
59375;BME280;45172;55.006;73.460;2023-05-19T05:13:51;101928.75;;;16.40;30.41
59375;BME280;45172;55.006;73.460;2023-05-19T05:16:17;101930.69;;;16.49;31.19
59375;BME280;45172;55.006;73.460;2023-05-19T05:18:44;101921.91;;;16.60;30.05
59375;BME280;45172;55.006;73.460;2023-05-19T05:21:11;101930.84;;;16.60;30.11
59375;BME280;45172;55.006;73.460;2023-05-19T05:23:37;101933.59;;;16.66;30.06
59375;BME280;45172;55.006;73.460;2023-05-19T05:26:09;101924.00;;;16.79;28.49
59375;BME280;45172;55.006;73.460;2023-05-19T05:28:40;101921.41;;;16.85;29.19
59375;BME280;45172;55.006;73.460;2023-05-19T05:31:08;101919.72;;;16.92;30.28
59375;BME280;45172;55.006;73.460;2023-05-19T05:33:34;101925.94;;;16.90;28.74
59375;BME280;45172;55.006;73.460;2023-05-19T05:36:00;101923.06;;;16.77;29.26
59375;BME280;45172;55.006;73.460;2023-05-19T05:38:26;101923.63;;;16.56;29.11
59375;BME280;45172;55.006;73.460;2023-05-19T05:40:52;101920.00;;;16.52;30.18
59375;BME280;45172;55.006;73.460;2023-05-19T05:43:19;101914.00;;;16.66;29.54
59375;BME280;45172;55.006;73.460;2023-05-19T05:45:45;101912.50;;;16.85;29.08
59375;BME280;45172;55.006;73.460;2023-05-19T05:48:11;101919.00;;;17.03;28.50
59375;BME280;45172;55.006;73.460;2023-05-19T05:50:37;101916.47;;;17.14;27.94
59375;BME280;45172;55.006;73.460;2023-05-19T05:53:05;101912.94;;;17.16;27.88
59375;BME280;45172;55.006;73.460;2023-05-19T05:55:32;101915.66;;;17.19;28.78
59375;BME280;45172;55.006;73.460;2023-05-19T05:57:59;101900.66;;;17.34;28.53
59375;BME280;45172;55.006;73.460;2023-05-19T06:00:27;101895.44;;;17.48;29.03
59375;BME280;45172;55.006;73.460;2023-05-19T06:02:53;101900.75;;;17.40;28.60
59375;BME280;45172;55.006;73.460;2023-05-19T06:05:19;101906.31;;;17.60;28.29
59375;BME280;45172;55.006;73.460;2023-05-19T06:07:46;101899.16;;;17.56;28.06
59375;BME280;45172;55.006;73.460;2023-05-19T06:10:13;101893.66;;;17.45;27.63
59375;BME280;45172;55.006;73.460;2023-05-19T06:12:39;101877.69;;;17.55;27.58
59375;BME280;45172;55.006;73.460;2023-05-19T06:15:07;101879.63;;;17.70;27.41
59375;BME280;45172;55.006;73.460;2023-05-19T06:17:33;101881.38;;;17.66;27.22
59375;BME280;45172;55.006;73.460;2023-05-19T06:20:03;101886.78;;;17.72;27.10
59375;BME280;45172;55.006;73.460;2023-05-19T06:22:31;101875.16;;;17.69;28.07
59375;BME280;45172;55.006;73.460;2023-05-19T06:24:57;101876.97;;;17.74;27.17
59375;BME280;45172;55.006;73.460;2023-05-19T06:27:23;101869.13;;;17.91;27.97
59375;BME280;45172;55.006;73.460;2023-05-19T06:29:49;101854.09;;;18.06;27.32
59375;BME280;45172;55.006;73.460;2023-05-19T06:32:16;101859.56;;;18.18;27.14
59375;BME280;45172;55.006;73.460;2023-05-19T06:34:42;101862.25;;;18.25;27.04
59375;BME280;45172;55.006;73.460;2023-05-19T06:37:08;101864.97;;;18.26;27.65
59375;BME280;45172;55.006;73.460;2023-05-19T06:39:34;101855.22;;;18.38;26.90
59375;BME280;45172;55.006;73.460;2023-05-19T06:42:00;101846.34;;;18.48;26.58
59375;BME280;45172;55.006;73.460;2023-05-19T06:44:26;101843.69;;;18.50;26.93
59375;BME280;45172;55.006;73.460;2023-05-19T06:46:52;101846.41;;;18.54;26.48
59375;BME280;45172;55.006;73.460;2023-05-19T06:49:18;101840.13;;;18.58;27.64
59375;BME280;45172;55.006;73.460;2023-05-19T06:51:44;101833.88;;;18.59;26.53
59375;BME280;45172;55.006;73.460;2023-05-19T06:54:10;101833.91;;;18.66;26.70
59375;BME280;45172;55.006;73.460;2023-05-19T06:56:39;101833.03;;;18.65;25.93
59375;BME280;45172;55.006;73.460;2023-05-19T06:59:05;101840.09;;;18.52;26.17
59375;BME280;45172;55.006;73.460;2023-05-19T07:01:31;101832.09;;;18.58;25.95
59375;BME280;45172;55.006;73.460;2023-05-19T07:03:59;101823.25;;;18.73;25.03
59375;BME280;45172;55.006;73.460;2023-05-19T07:06:25;101829.56;;;18.86;25.92
59375;BME280;45172;55.006;73.460;2023-05-19T07:08:51;101830.53;;;19.01;25.63
59375;BME280;45172;55.006;73.460;2023-05-19T07:11:18;101813.56;;;19.11;26.04
59375;BME280;45172;55.006;73.460;2023-05-19T07:13:44;101808.22;;;19.14;25.52
59375;BME280;45172;55.006;73.460;2023-05-19T07:16:10;101817.16;;;19.12;25.20
59375;BME280;45172;55.006;73.460;2023-05-19T07:18:36;101808.22;;;19.14;24.39
59375;BME280;45172;55.006;73.460;2023-05-19T07:21:03;101807.34;;;19.23;24.73
59375;BME280;45172;55.006;73.460;2023-05-19T07:23:31;101812.75;;;19.34;24.78
59375;BME280;45172;55.006;73.460;2023-05-19T07:25:57;101806.47;;;19.23;24.82
59375;BME280;45172;55.006;73.460;2023-05-19T07:28:23;101799.34;;;19.37;25.01
59375;BME280;45172;55.006;73.460;2023-05-19T07:30:49;101799.34;;;19.51;25.05
59375;BME280;45172;55.006;73.460;2023-05-19T07:33:15;101804.69;;;19.43;24.52
59375;BME280;45172;55.006;73.460;2023-05-19T07:35:41;101792.16;;;19.44;24.44
59375;BME280;45172;55.006;73.460;2023-05-19T07:38:09;101790.38;;;19.55;25.47
59375;BME280;45172;55.006;73.460;2023-05-19T07:40:35;101790.38;;;19.62;24.72
59375;BME280;45172;55.006;73.460;2023-05-19T07:43:02;101785.03;;;19.49;24.48
59375;BME280;45172;55.006;73.460;2023-05-19T07:45:28;101775.16;;;19.40;24.30
59375;BME280;45172;55.006;73.460;2023-05-19T07:47:56;101777.81;;;19.34;24.60
59375;BME280;45172;55.006;73.460;2023-05-19T07:50:22;101771.56;;;19.51;25.11
59375;BME280;45172;55.006;73.460;2023-05-19T07:52:50;101760.84;;;19.58;24.58
59375;BME280;45172;55.006;73.460;2023-05-19T07:55:16;101760.81;;;19.37;24.60
59375;BME280;45172;55.006;73.460;2023-05-19T07:57:42;101760.81;;;19.52;25.29
59375;BME280;45172;55.006;73.460;2023-05-19T08:00:09;101758.16;;;19.54;24.16
59375;BME280;45172;55.006;73.460;2023-05-19T08:02:37;101759.03;;;19.65;24.81
59375;BME280;45172;55.006;73.460;2023-05-19T08:05:04;101751.88;;;19.77;24.55
59375;BME280;45172;55.006;73.460;2023-05-19T08:07:31;101747.38;;;19.77;23.95
59375;BME280;45172;55.006;73.460;2023-05-19T08:09:58;101749.19;;;19.81;23.43
59375;BME280;45172;55.006;73.460;2023-05-19T08:12:24;101755.44;;;19.83;23.70
59375;BME280;45172;55.006;73.460;2023-05-19T08:14:50;101753.66;;;19.87;23.21
59375;BME280;45172;55.006;73.460;2023-05-19T08:17:17;101740.22;;;19.89;23.12
59375;BME280;45172;55.006;73.460;2023-05-19T08:19:43;101740.22;;;19.92;23.94
59375;BME280;45172;55.006;73.460;2023-05-19T08:22:09;101730.38;;;20.08;22.84
59375;BME280;45172;55.006;73.460;2023-05-19T08:24:36;101724.03;;;20.29;23.85
59375;BME280;45172;55.006;73.460;2023-05-19T08:27:03;101715.06;;;20.32;23.20
59375;BME280;45172;55.006;73.460;2023-05-19T08:29:33;101728.44;;;20.52;23.55
59375;BME280;45172;55.006;73.460;2023-05-19T08:31:59;101718.59;;;20.45;23.38
59375;BME280;45172;55.006;73.460;2023-05-19T08:34:27;101727.59;;;20.34;22.89
59375;BME280;45172;55.006;73.460;2023-05-19T08:36:53;101723.19;;;20.11;23.42
59375;BME280;45172;55.006;73.460;2023-05-19T08:39:23;101721.38;;;20.06;23.26
59375;BME280;45172;55.006;73.460;2023-05-19T08:41:52;101721.38;;;20.01;23.49
59375;BME280;45172;55.006;73.460;2023-05-19T08:44:19;101714.19;;;19.94;23.16
59375;BME280;45172;55.006;73.460;2023-05-19T08:46:48;101708.81;;;20.16;22.92
59375;BME280;45172;55.006;73.460;2023-05-19T08:49:22;101716.91;;;20.11;22.74
59375;BME280;45172;55.006;73.460;2023-05-19T08:52:01;101715.09;;;20.22;22.32
59375;BME280;45172;55.006;73.460;2023-05-19T08:54:41;101706.97;;;20.38;22.78
59375;BME280;45172;55.006;73.460;2023-05-19T08:57:11;101699.69;;;20.59;22.73
59375;BME280;45172;55.006;73.460;2023-05-19T08:59:38;101709.56;;;20.57;22.16
59375;BME280;45172;55.006;73.460;2023-05-19T09:02:07;101694.38;;;20.37;21.87
59375;BME280;45172;55.006;73.460;2023-05-19T09:04:37;101690.84;;;20.33;22.22
59375;BME280;45172;55.006;73.460;2023-05-19T09:07:05;101697.00;;;20.52;22.39
59375;BME280;45172;55.006;73.460;2023-05-19T09:09:31;101688.88;;;20.66;22.78
59375;BME280;45172;55.006;73.460;2023-05-19T09:11:58;101680.75;;;20.74;22.75
59375;BME280;45172;55.006;73.460;2023-05-19T09:14:24;101674.50;;;20.74;22.41
59375;BME280;45172;55.006;73.460;2023-05-19T09:16:51;101684.34;;;20.72;22.19
59375;BME280;45172;55.006;73.460;2023-05-19T09:19:20;101680.78;;;20.70;22.19
59375;BME280;45172;55.006;73.460;2023-05-19T09:21:59;101670.06;;;20.59;21.89
59375;BME280;45172;55.006;73.460;2023-05-19T09:24:28;101664.75;;;20.51;22.51
59375;BME280;45172;55.006;73.460;2023-05-19T09:26:56;101676.34;;;20.64;22.51
59375;BME280;45172;55.006;73.460;2023-05-19T09:29:23;101676.25;;;20.78;22.11
59375;BME280;45172;55.006;73.460;2023-05-19T09:31:52;101673.50;;;20.93;22.10
59375;BME280;45172;55.006;73.460;2023-05-19T09:34:19;101674.25;;;21.13;22.28
59375;BME280;45172;55.006;73.460;2023-05-19T09:36:48;101663.56;;;21.06;22.14
59375;BME280;45172;55.006;73.460;2023-05-19T09:39:16;101668.88;;;21.16;22.20
59375;BME280;45172;55.006;73.460;2023-05-19T09:41:46;101658.91;;;21.21;22.34
59375;BME280;45172;55.006;73.460;2023-05-19T09:44:26;101667.00;;;21.23;22.18
59375;BME280;45172;55.006;73.460;2023-05-19T09:46:56;101667.88;;;21.25;21.83
59375;BME280;45172;55.006;73.460;2023-05-19T09:49:26;101654.41;;;21.26;21.93
59375;BME280;45172;55.006;73.460;2023-05-19T09:52:03;101636.41;;;21.28;21.45
59375;BME280;45172;55.006;73.460;2023-05-19T09:54:29;101644.44;;;21.34;22.18
59375;BME280;45172;55.006;73.460;2023-05-19T09:59:24;101647.91;;;21.51;21.88
59375;BME280;45172;55.006;73.460;2023-05-19T10:01:55;101640.69;;;21.51;22.45
59375;BME280;45172;55.006;73.460;2023-05-19T10:04:26;101638.84;;;21.56;21.93
59375;BME280;45172;55.006;73.460;2023-05-19T10:06:53;101644.19;;;21.62;22.33
59375;BME280;45172;55.006;73.460;2023-05-19T10:09:24;101636.97;;;21.66;21.67
59375;BME280;45172;55.006;73.460;2023-05-19T10:11:52;101635.19;;;21.63;21.34
59375;BME280;45172;55.006;73.460;2023-05-19T10:14:23;101627.41;;;21.29;20.87
59375;BME280;45172;55.006;73.460;2023-05-19T10:16:50;101613.16;;;21.18;22.11
59375;BME280;45172;55.006;73.460;2023-05-19T10:19:20;101621.94;;;21.40;22.32
59375;BME280;45172;55.006;73.460;2023-05-19T10:24:17;101617.34;;;21.52;21.95
59375;BME280;45172;55.006;73.460;2023-05-19T10:26:57;101613.69;;;21.59;22.03
59375;BME280;45172;55.006;73.460;2023-05-19T10:29:32;101608.16;;;21.76;21.82
59375;BME280;45172;55.006;73.460;2023-05-19T10:32:05;101609.06;;;21.73;22.10
59375;BME280;45172;55.006;73.460;2023-05-19T10:37:29;101603.91;;;21.47;22.03
59375;BME280;45172;55.006;73.460;2023-05-19T10:39:59;101607.44;;;21.52;21.92
59375;BME280;45172;55.006;73.460;2023-05-19T10:45:25;101585.56;;;21.85;21.11
59375;BME280;45172;55.006;73.460;2023-05-19T10:47:53;101580.22;;;21.79;21.73
59375;BME280;45172;55.006;73.460;2023-05-19T10:50:19;101591.97;;;21.74;21.77
59375;BME280;45172;55.006;73.460;2023-05-19T10:52:52;101587.44;;;21.75;21.67
59375;BME280;45172;55.006;73.460;2023-05-19T10:55:43;101584.69;;;21.81;22.01
59375;BME280;45172;55.006;73.460;2023-05-19T10:58:10;101590.16;;;21.76;22.22
59375;BME280;45172;55.006;73.460;2023-05-19T11:00:38;101576.66;;;21.80;21.63
59375;BME280;45172;55.006;73.460;2023-05-19T11:03:13;101582.09;;;21.72;21.34
59375;BME280;45172;55.006;73.460;2023-05-19T11:05:40;101567.69;;;21.76;21.41
59375;BME280;45172;55.006;73.460;2023-05-19T11:08:10;101574.69;;;21.89;21.47
59375;BME280;45172;55.006;73.460;2023-05-19T11:10:37;101565.69;;;21.90;21.56
59375;BME280;45172;55.006;73.460;2023-05-19T11:13:03;101561.13;;;21.99;21.86
59375;BME280;45172;55.006;73.460;2023-05-19T11:15:34;101570.22;;;21.88;22.21
59375;BME280;45172;55.006;73.460;2023-05-19T11:18:03;101560.63;;;21.62;22.20
59375;BME280;45172;55.006;73.460;2023-05-19T11:20:29;101568.78;;;21.55;22.61
59375;BME280;45172;55.006;73.460;2023-05-19T11:25:47;101557.78;;;21.76;22.20
59375;BME280;45172;55.006;73.460;2023-05-19T11:28:18;101559.41;;;21.92;22.82
59375;BME280;45172;55.006;73.460;2023-05-19T11:30:47;101560.28;;;21.92;22.15
59375;BME280;45172;55.006;73.460;2023-05-19T11:33:16;101561.19;;;21.93;22.32
59375;BME280;45172;55.006;73.460;2023-05-19T11:35:47;101554.94;;;21.89;21.97
59375;BME280;45172;55.006;73.460;2023-05-19T11:38:17;101546.06;;;21.81;21.98
59375;BME280;45172;55.006;73.460;2023-05-19T11:40:44;101552.59;;;21.58;22.39
59375;BME280;45172;55.006;73.460;2023-05-19T11:43:12;101554.50;;;21.46;22.65
59375;BME280;45172;55.006;73.460;2023-05-19T11:45:38;101541.03;;;21.45;23.11
59375;BME280;45172;55.006;73.460;2023-05-19T11:48:04;101551.00;;;21.37;22.64
59375;BME280;45172;55.006;73.460;2023-05-19T11:50:31;101542.78;;;21.51;23.37
59375;BME280;45172;55.006;73.460;2023-05-19T11:53:01;101550.81;;;21.55;23.42
59375;BME280;45172;55.006;73.460;2023-05-19T11:55:28;101535.56;;;21.51;23.15
59375;BME280;45172;55.006;73.460;2023-05-19T12:00:24;101529.38;;;21.44;23.29
59375;BME280;45172;55.006;73.460;2023-05-19T12:02:51;101531.03;;;21.55;23.34
59375;BME280;45172;55.006;73.460;2023-05-19T12:05:22;101543.69;;;21.48;23.24
59375;BME280;45172;55.006;73.460;2023-05-19T12:07:49;101532.06;;;21.46;22.96
59375;BME280;45172;55.006;73.460;2023-05-19T12:10:24;101523.88;;;21.52;22.60
59375;BME280;45172;55.006;73.460;2023-05-19T12:12:51;101541.84;;;21.53;22.99
59375;BME280;45172;55.006;73.460;2023-05-19T12:15:19;101523.19;;;21.33;23.05
59375;BME280;45172;55.006;73.460;2023-05-19T12:17:57;101521.22;;;21.47;22.92
59375;BME280;45172;55.006;73.460;2023-05-19T12:20:24;101519.56;;;21.39;23.29
59375;BME280;45172;55.006;73.460;2023-05-19T12:22:55;101521.44;;;21.30;24.31
59375;BME280;45172;55.006;73.460;2023-05-19T12:25:23;101517.72;;;21.39;23.13
59375;BME280;45172;55.006;73.460;2023-05-19T12:27:49;101508.84;;;21.34;23.14
59375;BME280;45172;55.006;73.460;2023-05-19T12:30:25;101506.16;;;21.31;23.72
59375;BME280;45172;55.006;73.460;2023-05-19T12:32:53;101507.00;;;21.38;23.65
59375;BME280;45172;55.006;73.460;2023-05-19T12:35:19;101504.25;;;21.41;23.38
59375;BME280;45172;55.006;73.460;2023-05-19T12:37:48;101505.84;;;21.56;23.65
59375;BME280;45172;55.006;73.460;2023-05-19T12:40:15;101501.16;;;21.78;23.80
59375;BME280;45172;55.006;73.460;2023-05-19T12:42:44;101516.41;;;21.79;22.73
59375;BME280;45172;55.006;73.460;2023-05-19T12:45:09;101522.00;;;21.60;23.11
59375;BME280;45172;55.006;73.460;2023-05-19T12:47:36;101511.16;;;21.65;23.35
59375;BME280;45172;55.006;73.460;2023-05-19T12:50:06;101514.66;;;21.75;23.42
59375;BME280;45172;55.006;73.460;2023-05-19T12:52:48;101519.22;;;21.70;23.07
59375;BME280;45172;55.006;73.460;2023-05-19T12:55:19;101508.47;;;21.63;22.99
59375;BME280;45172;55.006;73.460;2023-05-19T12:57:49;101508.19;;;21.88;23.22
59375;BME280;45172;55.006;73.460;2023-05-19T13:00:24;101505.34;;;22.01;22.59
59375;BME280;45172;55.006;73.460;2023-05-19T13:03:06;101518.56;;;22.20;22.62
59375;BME280;45172;55.006;73.460;2023-05-19T13:05:36;101500.44;;;22.28;22.29
59375;BME280;45172;55.006;73.460;2023-05-19T13:08:11;101513.78;;;22.37;22.30
59375;BME280;45172;55.006;73.460;2023-05-19T13:10:39;101503.50;;;22.64;21.56
59375;BME280;45172;55.006;73.460;2023-05-19T13:13:06;101514.81;;;22.87;21.89
59375;BME280;45172;55.006;73.460;2023-05-19T13:15:35;101512.69;;;23.06;21.79
59375;BME280;45172;55.006;73.460;2023-05-19T13:18:04;101505.69;;;23.44;21.50